Terminal Aerodrome Forecast
Issued by NWS Knoxville/Tri Cities, TN

Home | Current Version | Previous Version | Text Only | Print | Product List | Glossary On
Versions: 1 2 3 4 5 6 7 8 9 10 11 12 13 14 15 16 17 18 19 20 21 22 23 24 25 26 27 28 29 30 31 32 33 34 35 36 37 38 39
000
FTUS44 KMRX 191512 AAA
TAFTYS
TAF AMD
KTYS 191512Z 1915/2012 10005KT P6SM VCSH OVC050
     FM191700 21012G24KT 3SM SHRA BR VCTS BKN035CB OVC100
     FM191900 20013G25KT P6SM VCTS BKN040CB OVC090
     FM200200 23009KT P6SM VCTS BKN020CB OVC050
     FM200600 23005KT P6SM OVC015=

USA.gov is the U.S. government's official web portal to all federal, state and local government web resources and services.